Time;durP1;ratioP1;P1;durP2;ratioP2;P2;SDS_P1;SDS_P2;PMS_P1;PMS_P2;Temp;Humidity;BMP_temperature;BMP_pressure;BME280_temperature;BME280_humidity;BME280_pressure;Samples;Min_cycle;Max_cycle;Signal;HPM_P1;HPM_P2
2023/12/07 00:01:52;;;;;;;61.10;27.00;;;;;;;;;;4904538;29;20469;-84
2023/12/07 00:04:17;;;;;;;56.73;24.17;;;;;;;;;;4916643;29;20267;-84
2023/12/07 00:06:43;;;;;;;48.47;23.40;;;;;;;;;;4909304;29;20274;-84
2023/12/07 00:09:08;;;;;;;52.67;25.73;;;;;;;;;;4915484;29;20270;-84
2023/12/07 00:11:33;;;;;;;43.97;21.60;;;;;;;;;;4901076;29;20271;-83
2023/12/07 00:13:58;;;;;;;37.10;18.98;;;;;;;;;;4903508;29;20291;-83
2023/12/07 00:16:24;;;;;;;26.98;15.18;;;;;;;;;;4912731;29;20076;-84
2023/12/07 00:18:49;;;;;;;29.00;14.63;;;;;;;;;;4913250;29;20024;-83
2023/12/07 00:21:14;;;;;;;30.50;16.90;;;;;;;;;;4910960;29;20262;-83
2023/12/07 00:23:39;;;;;;;44.70;21.35;;;;;;;;;;4910059;29;20271;-84
2023/12/07 00:26:05;;;;;;;55.55;25.67;;;;;;;;;;4897222;29;20036;-83
2023/12/07 00:28:30;;;;;;;45.55;20.02;;;;;;;;;;4911264;29;20044;-84
2023/12/07 00:30:55;;;;;;;33.58;16.95;;;;;;;;;;4908046;29;20035;-84
2023/12/07 00:33:21;;;;;;;31.00;16.20;;;;;;;;;;4897875;29;20115;-84
2023/12/07 00:35:47;;;;;;;33.30;15.57;;;;;;;;;;4913925;29;20035;-84
2023/12/07 00:38:12;;;;;;;30.40;15.07;;;;;;;;;;4902770;29;20025;-84
2023/12/07 00:40:39;;;;;;;31.67;15.43;;;;;;;;;;4898104;29;20051;-84
2023/12/07 00:43:05;;;;;;;36.28;14.32;;;;;;;;;;4927910;29;20345;-84
2023/12/07 00:45:30;;;;;;;28.98;13.77;;;;;;;;;;4910227;29;20492;-84
2023/12/07 00:47:56;;;;;;;25.75;12.73;;;;;;;;;;4907551;29;20020;-84
2023/12/07 00:50:21;;;;;;;26.48;12.00;;;;;;;;;;4907836;29;20361;-84
2023/12/07 00:52:47;;;;;;;21.65;11.45;;;;;;;;;;4896018;29;20059;-84
2023/12/07 00:55:12;;;;;;;23.77;11.55;;;;;;;;;;4899415;29;20049;-84
2023/12/07 00:57:37;;;;;;;19.55;11.68;;;;;;;;;;4894916;29;20117;-84
2023/12/07 01:00:03;;;;;;;21.63;12.80;;;;;;;;;;4906827;29;20027;-84
2023/12/07 01:02:29;;;;;;;19.60;11.60;;;;;;;;;;4906926;29;20897;-83
2023/12/07 01:04:54;;;;;;;19.70;11.13;;;;;;;;;;4907050;29;20118;-84
2023/12/07 01:07:20;;;;;;;25.17;11.95;;;;;;;;;;4906369;29;20051;-84
2023/12/07 01:09:46;;;;;;;23.35;11.77;;;;;;;;;;4897748;29;20390;-84
2023/12/07 01:12:11;;;;;;;22.10;11.65;;;;;;;;;;4910182;29;20033;-83
2023/12/07 01:14:36;;;;;;;21.55;11.25;;;;;;;;;;4930126;29;20040;-84
2023/12/07 01:17:02;;;;;;;21.25;11.57;;;;;;;;;;4915936;29;20437;-84
2023/12/07 01:19:27;;;;;;;24.30;12.18;;;;;;;;;;4907063;29;20038;-83
2023/12/07 01:21:52;;;;;;;19.87;11.20;;;;;;;;;;4902166;29;20029;-83
2023/12/07 01:24:17;;;;;;;25.47;11.37;;;;;;;;;;4911705;29;20267;-83
2023/12/07 01:26:43;;;;;;;23.20;11.87;;;;;;;;;;4907746;29;20281;-83
2023/12/07 01:29:08;;;;;;;22.58;11.80;;;;;;;;;;4914438;29;20386;-84
2023/12/07 01:31:33;;;;;;;20.07;11.63;;;;;;;;;;4900024;29;20036;-83
2023/12/07 01:33:59;;;;;;;18.47;10.57;;;;;;;;;;4906689;29;20294;-84
2023/12/07 01:36:24;;;;;;;24.37;11.10;;;;;;;;;;4902053;29;20306;-84
2023/12/07 01:38:49;;;;;;;22.20;10.63;;;;;;;;;;4914223;29;20285;-83
2023/12/07 01:41:15;;;;;;;28.38;11.70;;;;;;;;;;4908472;29;20365;-83
2023/12/07 01:43:46;;;;;;;18.83;10.93;;;;;;;;;;4906747;29;20035;-84
2023/12/07 01:46:12;;;;;;;24.80;13.00;;;;;;;;;;4912756;29;20263;-83
2023/12/07 01:48:37;;;;;;;21.83;11.30;;;;;;;;;;4909817;29;20485;-84
2023/12/07 01:51:03;;;;;;;24.50;12.23;;;;;;;;;;4907406;29;20106;-84
2023/12/07 01:53:29;;;;;;;21.90;12.05;;;;;;;;;;4906487;29;20283;-83
2023/12/07 01:55:54;;;;;;;22.17;11.23;;;;;;;;;;4914388;29;20028;-84
2023/12/07 01:58:19;;;;;;;28.60;12.40;;;;;;;;;;4912070;29;20032;-83
2023/12/07 02:00:45;;;;;;;20.42;11.57;;;;;;;;;;4903793;29;20017;-84
2023/12/07 02:03:11;;;;;;;20.90;11.05;;;;;;;;;;4919425;29;20028;-84
2023/12/07 02:05:37;;;;;;;21.48;11.73;;;;;;;;;;4907683;29;20477;-83
2023/12/07 02:08:02;;;;;;;27.75;12.52;;;;;;;;;;4906629;29;20028;-83
2023/12/07 02:10:28;;;;;;;19.13;11.40;;;;;;;;;;4912786;29;20052;-83
2023/12/07 02:12:54;;;;;;;26.67;11.90;;;;;;;;;;4913816;29;20032;-84
2023/12/07 02:15:19;;;;;;;23.10;11.50;;;;;;;;;;4911028;29;20028;-84
2023/12/07 02:17:52;;;;;;;30.02;12.90;;;;;;;;;;4917611;29;20370;-84
2023/12/07 02:20:17;;;;;;;24.30;12.80;;;;;;;;;;4900120;29;20073;-84
2023/12/07 02:22:47;;;;;;;21.67;11.67;;;;;;;;;;4932437;29;20107;-84
2023/12/07 02:25:14;;;;;;;29.58;12.30;;;;;;;;;;4917609;29;20032;-83
2023/12/07 02:27:40;;;;;;;20.92;12.00;;;;;;;;;;4918417;29;20055;-84
2023/12/07 02:30:06;;;;;;;21.60;11.80;;;;;;;;;;4930165;29;20028;-83
2023/12/07 02:32:32;;;;;;;23.95;11.93;;;;;;;;;;4912552;29;20500;-84
2023/12/07 02:34:57;;;;;;;26.60;13.18;;;;;;;;;;4910167;29;20164;-83
2023/12/07 02:37:24;;;;;;;25.63;12.65;;;;;;;;;;4914381;29;20021;-84
2023/12/07 02:39:51;;;;;;;25.25;13.68;;;;;;;;;;4913206;29;20167;-83
2023/12/07 02:42:16;;;;;;;24.02;13.73;;;;;;;;;;4930861;29;20118;-83
2023/12/07 02:44:42;;;;;;;23.00;12.85;;;;;;;;;;4900430;29;20160;-84
2023/12/07 02:47:08;;;;;;;26.38;12.77;;;;;;;;;;4907883;29;20039;-83
2023/12/07 02:49:33;;;;;;;27.15;12.45;;;;;;;;;;4917716;29;20759;-84
2023/12/07 02:51:58;;;;;;;21.87;11.27;;;;;;;;;;4918130;29;20024;-84
2023/12/07 02:54:23;;;;;;;29.55;13.45;;;;;;;;;;4900852;29;20287;-83
2023/12/07 02:56:48;;;;;;;22.90;11.93;;;;;;;;;;4903025;29;20025;-83
2023/12/07 02:59:14;;;;;;;30.47;12.47;;;;;;;;;;4916867;29;20358;-84
2023/12/07 03:01:39;;;;;;;24.20;12.67;;;;;;;;;;4915228;29;20306;-84
2023/12/07 03:04:04;;;;;;;24.17;12.33;;;;;;;;;;4906389;29;20326;-84
2023/12/07 03:06:29;;;;;;;22.47;12.43;;;;;;;;;;4906524;29;20307;-84
2023/12/07 03:08:55;;;;;;;23.37;12.50;;;;;;;;;;4914711;29;20279;-84
2023/12/07 03:11:21;;;;;;;25.80;12.95;;;;;;;;;;4907213;29;20279;-84
2023/12/07 03:13:46;;;;;;;28.98;12.80;;;;;;;;;;4907253;29;20080;-83
2023/12/07 03:16:11;;;;;;;26.50;13.73;;;;;;;;;;4915058;29;20028;-84
2023/12/07 03:18:37;;;;;;;24.48;13.07;;;;;;;;;;4908753;29;20499;-84
2023/12/07 03:21:03;;;;;;;22.48;11.32;;;;;;;;;;4901338;29;20029;-84
2023/12/07 03:23:28;;;;;;;21.23;11.43;;;;;;;;;;4914491;29;20028;-84
2023/12/07 03:25:53;;;;;;;25.40;11.38;;;;;;;;;;4906131;29;20048;-84
2023/12/07 03:28:18;;;;;;;28.52;12.55;;;;;;;;;;4906788;29;20057;-84
2023/12/07 03:30:44;;;;;;;25.30;12.77;;;;;;;;;;4915922;29;20028;-84
2023/12/07 03:33:09;;;;;;;23.13;12.00;;;;;;;;;;4911418;29;20108;-83
2023/12/07 03:35:34;;;;;;;22.00;11.73;;;;;;;;;;4905530;29;20458;-84
2023/12/07 03:37:59;;;;;;;26.07;11.50;;;;;;;;;;4909577;29;20265;-84
2023/12/07 03:40:24;;;;;;;23.03;11.33;;;;;;;;;;4908457;29;20293;-84
2023/12/07 03:42:50;;;;;;;27.67;12.70;;;;;;;;;;4909155;29;20627;-84
2023/12/07 03:45:15;;;;;;;22.80;11.70;;;;;;;;;;4903716;29;20277;-84
2023/12/07 03:47:40;;;;;;;25.25;12.77;;;;;;;;;;4913062;29;20280;-83
2023/12/07 03:50:06;;;;;;;28.90;12.43;;;;;;;;;;4906618;29;20107;-83
2023/12/07 03:52:31;;;;;;;25.05;12.98;;;;;;;;;;4926109;29;20317;-83
2023/12/07 03:54:56;;;;;;;27.27;12.43;;;;;;;;;;4907702;29;20024;-84
2023/12/07 03:57:21;;;;;;;24.33;13.10;;;;;;;;;;4915823;29;20270;-83
2023/12/07 03:59:46;;;;;;;31.05;13.52;;;;;;;;;;4908269;29;20270;-84
2023/12/07 04:02:12;;;;;;;26.95;14.75;;;;;;;;;;4909198;29;20056;-84
2023/12/07 04:04:38;;;;;;;27.47;14.20;;;;;;;;;;4898283;29;20029;-83
2023/12/07 04:07:03;;;;;;;25.65;13.23;;;;;;;;;;4898463;29;20632;-84
2023/12/07 04:09:30;;;;;;;26.48;13.27;;;;;;;;;;4895101;29;20020;-84
2023/12/07 04:11:55;;;;;;;27.08;12.88;;;;;;;;;;4923655;29;20072;-84
2023/12/07 04:14:21;;;;;;;37.90;12.23;;;;;;;;;;4915446;29;20028;-84
2023/12/07 04:16:47;;;;;;;32.70;12.90;;;;;;;;;;4922175;29;20043;-84
2023/12/07 04:19:12;;;;;;;30.83;12.05;;;;;;;;;;4904813;29;20020;-83
2023/12/07 04:21:37;;;;;;;23.88;11.82;;;;;;;;;;4905949;29;20396;-83
2023/12/07 04:24:03;;;;;;;20.17;10.70;;;;;;;;;;4914021;29;20028;-84
2023/12/07 04:26:29;;;;;;;21.52;10.88;;;;;;;;;;4908950;29;20028;-83
2023/12/07 04:28:54;;;;;;;22.10;11.13;;;;;;;;;;4915508;29;20405;-84
2023/12/07 04:31:21;;;;;;;24.50;11.00;;;;;;;;;;4908343;29;20087;-84
2023/12/07 04:33:46;;;;;;;34.35;12.05;;;;;;;;;;4910558;29;20025;-84
2023/12/07 04:36:12;;;;;;;30.85;12.85;;;;;;;;;;4907677;29;20080;-83
2023/12/07 04:38:37;;;;;;;40.92;12.18;;;;;;;;;;4907842;29;20069;-83
2023/12/07 04:41:02;;;;;;;35.47;12.05;;;;;;;;;;4916403;29;20028;-83
2023/12/07 04:43:28;;;;;;;33.10;13.02;;;;;;;;;;4913741;29;20416;-84
2023/12/07 04:45:53;;;;;;;34.00;9.88;;;;;;;;;;4908324;29;20036;-84
2023/12/07 04:48:18;;;;;;;29.15;9.68;;;;;;;;;;4916416;29;20110;-84
2023/12/07 04:50:44;;;;;;;24.48;10.65;;;;;;;;;;4915947;29;20049;-83
2023/12/07 04:53:09;;;;;;;42.50;10.73;;;;;;;;;;4911950;29;20445;-83
2023/12/07 04:55:35;;;;;;;22.48;9.75;;;;;;;;;;4896601;29;20286;-83
2023/12/07 04:58:00;;;;;;;19.80;9.15;;;;;;;;;;4914117;29;20016;-83
2023/12/07 05:00:27;;;;;;;22.17;9.27;;;;;;;;;;4908055;29;20387;-82
2023/12/07 05:02:52;;;;;;;23.20;10.63;;;;;;;;;;4923020;29;20027;-83
2023/12/07 05:05:17;;;;;;;22.67;9.70;;;;;;;;;;4906935;29;20048;-84
2023/12/07 05:07:42;;;;;;;23.77;9.50;;;;;;;;;;4910055;29;20031;-83
2023/12/07 05:10:09;;;;;;;20.02;9.82;;;;;;;;;;4922859;29;20267;-84
2023/12/07 05:12:35;;;;;;;22.63;11.73;;;;;;;;;;4905400;29;20028;-84
2023/12/07 05:15:00;;;;;;;26.80;10.25;;;;;;;;;;4909651;29;20024;-84
2023/12/07 05:17:26;;;;;;;24.45;8.60;;;;;;;;;;4907405;29;20051;-84
2023/12/07 05:19:51;;;;;;;25.85;10.73;;;;;;;;;;4905244;29;20381;-83
2023/12/07 05:22:16;;;;;;;17.33;8.90;;;;;;;;;;4910108;29;20051;-83
2023/12/07 05:24:42;;;;;;;18.08;8.55;;;;;;;;;;4906819;29;20028;-85
2023/12/07 05:27:07;;;;;;;15.20;7.50;;;;;;;;;;4909409;29;20425;-83
2023/12/07 05:29:32;;;;;;;16.13;8.53;;;;;;;;;;4910759;29;20766;-82
2023/12/07 05:31:57;;;;;;;24.48;10.60;;;;;;;;;;4914199;29;20274;-83
2023/12/07 05:34:23;;;;;;;18.35;8.90;;;;;;;;;;4910071;29;20024;-83
2023/12/07 05:36:48;;;;;;;13.98;7.15;;;;;;;;;;4922484;29;20017;-83
2023/12/07 05:39:13;;;;;;;14.77;6.80;;;;;;;;;;4922509;29;20123;-82
2023/12/07 05:41:38;;;;;;;15.60;7.40;;;;;;;;;;4909735;29;20076;-84
2023/12/07 05:44:03;;;;;;;16.53;7.10;;;;;;;;;;4913992;29;20278;-83
2023/12/07 05:46:29;;;;;;;12.05;6.50;;;;;;;;;;4915464;29;20266;-83
2023/12/07 05:48:54;;;;;;;13.93;7.50;;;;;;;;;;4918539;29;20107;-83
2023/12/07 05:51:20;;;;;;;19.43;8.23;;;;;;;;;;4934939;29;20251;-83
2023/12/07 05:53:45;;;;;;;14.20;7.25;;;;;;;;;;4934640;29;20361;-83
2023/12/07 05:56:11;;;;;;;14.93;7.00;;;;;;;;;;4920154;29;20103;-83
2023/12/07 05:58:36;;;;;;;13.75;6.50;;;;;;;;;;4934756;29;20266;-83
2023/12/07 06:01:02;;;;;;;12.73;6.18;;;;;;;;;;4918948;29;20040;-83
2023/12/07 06:03:27;;;;;;;19.38;8.07;;;;;;;;;;4920081;29;20032;-83
2023/12/07 06:05:53;;;;;;;23.88;7.28;;;;;;;;;;4918797;29;20031;-83
2023/12/07 06:08:18;;;;;;;16.13;6.40;;;;;;;;;;4918742;29;20163;-83
2023/12/07 06:10:44;;;;;;;14.30;6.87;;;;;;;;;;4934536;29;20020;-83
2023/12/07 06:13:09;;;;;;;15.17;6.33;;;;;;;;;;4919447;29;20278;-83
2023/12/07 06:15:34;;;;;;;16.10;6.40;;;;;;;;;;4920127;29;20253;-83
2023/12/07 06:17:59;;;;;;;14.23;7.33;;;;;;;;;;4934478;29;20361;-83
2023/12/07 06:20:25;;;;;;;16.20;7.05;;;;;;;;;;4919839;29;20810;-84
2023/12/07 06:22:50;;;;;;;13.65;6.82;;;;;;;;;;4934247;29;20024;-83
2023/12/07 06:25:16;;;;;;;21.53;7.37;;;;;;;;;;4934371;29;20024;-83
2023/12/07 06:27:41;;;;;;;20.60;7.75;;;;;;;;;;4933965;29;20395;-83
2023/12/07 06:30:06;;;;;;;20.70;8.20;;;;;;;;;;4934259;29;20091;-83
2023/12/07 06:32:32;;;;;;;13.63;6.70;;;;;;;;;;4934077;29;20079;-83
2023/12/07 06:34:57;;;;;;;16.52;7.35;;;;;;;;;;4934121;29;20034;-83
2023/12/07 06:37:23;;;;;;;22.73;7.25;;;;;;;;;;4918255;29;20408;-83
2023/12/07 06:39:49;;;;;;;15.50;6.07;;;;;;;;;;4919480;29;20031;-83
2023/12/07 06:42:14;;;;;;;10.85;5.30;;;;;;;;;;4919515;29;20262;-83
2023/12/07 06:44:39;;;;;;;11.20;5.30;;;;;;;;;;4919358;29;20016;-83
2023/12/07 06:47:05;;;;;;;12.48;5.80;;;;;;;;;;4919379;29;20026;-83
2023/12/07 06:49:30;;;;;;;14.68;5.25;;;;;;;;;;4919275;29;20075;-83
2023/12/07 06:51:56;;;;;;;13.30;6.10;;;;;;;;;;4933861;29;20473;-83
2023/12/07 06:54:21;;;;;;;11.03;5.33;;;;;;;;;;4933725;29;20080;-83
2023/12/07 06:56:47;;;;;;;13.52;6.25;;;;;;;;;;4919165;29;20262;-83
2023/12/07 06:59:12;;;;;;;9.83;4.53;;;;;;;;;;4918986;29;20091;-83
2023/12/07 07:01:38;;;;;;;10.10;4.83;;;;;;;;;;4933658;29;20290;-83
2023/12/07 07:04:03;;;;;;;11.63;5.00;;;;;;;;;;4919091;29;20083;-83
2023/12/07 07:06:29;;;;;;;11.43;4.97;;;;;;;;;;4917757;29;20144;-83
2023/12/07 07:08:54;;;;;;;14.97;6.37;;;;;;;;;;4918927;29;20095;-83
2023/12/07 07:11:19;;;;;;;11.87;5.63;;;;;;;;;;4933434;29;20485;-83
2023/12/07 07:13:44;;;;;;;12.80;6.13;;;;;;;;;;4918801;29;20283;-83
2023/12/07 07:16:09;;;;;;;9.27;5.03;;;;;;;;;;4918794;29;20710;-83
2023/12/07 07:18:36;;;;;;;10.13;5.03;;;;;;;;;;4918787;29;20716;-83
2023/12/07 07:21:04;;;;;;;12.57;5.78;;;;;;;;;;4917486;29;20656;-83
2023/12/07 07:23:29;;;;;;;10.15;5.40;;;;;;;;;;4918552;29;20051;-83
2023/12/07 07:25:54;;;;;;;16.20;5.00;;;;;;;;;;4933213;29;20059;-83
2023/12/07 07:28:20;;;;;;;12.02;5.03;;;;;;;;;;4932950;29;20040;-83
2023/12/07 07:30:45;;;;;;;19.17;5.65;;;;;;;;;;4933157;29;20027;-83
2023/12/07 07:33:10;;;;;;;14.47;5.83;;;;;;;;;;4918373;29;20024;-83
2023/12/07 07:35:36;;;;;;;13.45;5.85;;;;;;;;;;4918448;29;20259;-83
2023/12/07 07:38:01;;;;;;;17.35;6.90;;;;;;;;;;4932982;29;20016;-83
2023/12/07 07:40:26;;;;;;;17.50;6.00;;;;;;;;;;4918357;29;20054;-83
2023/12/07 07:42:52;;;;;;;15.00;7.17;;;;;;;;;;4932869;29;20250;-83
2023/12/07 07:45:17;;;;;;;17.30;7.03;;;;;;;;;;4916966;29;20255;-83
2023/12/07 07:47:42;;;;;;;16.45;5.93;;;;;;;;;;4932776;29;20024;-83
2023/12/07 07:50:07;;;;;;;13.53;6.33;;;;;;;;;;4932812;29;20028;-83
2023/12/07 07:52:33;;;;;;;13.38;6.72;;;;;;;;;;4916774;29;20346;-83
2023/12/07 07:54:59;;;;;;;11.35;5.57;;;;;;;;;;4916909;29;20020;-83
2023/12/07 07:57:25;;;;;;;20.75;6.43;;;;;;;;;;4916835;29;20024;-83
2023/12/07 07:59:50;;;;;;;12.70;6.37;;;;;;;;;;4932617;29;20023;-83
2023/12/07 08:02:15;;;;;;;10.73;5.57;;;;;;;;;;4918248;29;20294;-83
2023/12/07 08:04:40;;;;;;;11.37;5.90;;;;;;;;;;4932477;29;20616;-83
2023/12/07 08:07:07;;;;;;;10.73;5.60;;;;;;;;;;4932441;29;20333;-83
2023/12/07 08:09:32;;;;;;;22.27;6.20;;;;;;;;;;4917856;29;20255;-83
2023/12/07 08:11:58;;;;;;;11.32;5.28;;;;;;;;;;4931930;29;20027;-83
2023/12/07 08:14:23;;;;;;;11.63;4.57;;;;;;;;;;4917698;29;20502;-83
2023/12/07 08:16:48;;;;;;;15.03;6.50;;;;;;;;;;4917698;29;20250;-82
2023/12/07 08:19:13;;;;;;;12.38;5.47;;;;;;;;;;4917730;29;20251;-83
2023/12/07 08:21:39;;;;;;;17.33;5.10;;;;;;;;;;4917557;29;20027;-83
2023/12/07 08:24:05;;;;;;;10.50;4.85;;;;;;;;;;4917609;29;20265;-83
2023/12/07 08:26:30;;;;;;;9.57;4.32;;;;;;;;;;4932502;29;20415;-83
2023/12/07 08:28:56;;;;;;;12.40;4.70;;;;;;;;;;4931981;29;20139;-83
2023/12/07 08:31:23;;;;;;;9.35;5.13;;;;;;;;;;4932068;29;20294;-82
2023/12/07 08:33:48;;;;;;;10.70;5.50;;;;;;;;;;4917439;29;20389;-82
2023/12/07 08:36:13;;;;;;;8.83;4.60;;;;;;;;;;4932004;29;20076;-83
2023/12/07 08:38:38;;;;;;;12.67;5.33;;;;;;;;;;4931924;29;20247;-83
2023/12/07 08:41:03;;;;;;;15.87;4.53;;;;;;;;;;4917343;29;20378;-83
2023/12/07 08:43:30;;;;;;;10.27;5.35;;;;;;;;;;4917386;29;20333;-83
2023/12/07 08:45:55;;;;;;;8.82;4.68;;;;;;;;;;4931877;29;20476;-83
2023/12/07 08:48:21;;;;;;;8.47;5.10;;;;;;;;;;4917237;29;20028;-83
2023/12/07 08:50:46;;;;;;;7.13;4.07;;;;;;;;;;4931822;29;20251;-83
2023/12/07 08:53:11;;;;;;;12.50;5.30;;;;;;;;;;4931710;29;20278;-83
2023/12/07 08:55:36;;;;;;;12.18;5.18;;;;;;;;;;4931735;29;20020;-83
2023/12/07 08:58:04;;;;;;;9.07;4.40;;;;;;;;;;4917132;29;20031;-83
2023/12/07 09:00:30;;;;;;;9.48;4.95;;;;;;;;;;4917090;29;20262;-84
2023/12/07 09:02:55;;;;;;;13.98;7.22;;;;;;;;;;4917097;29;20024;-83
2023/12/07 09:05:20;;;;;;;11.40;5.03;;;;;;;;;;4931654;29;20024;-83
2023/12/07 09:07:46;;;;;;;12.65;5.75;;;;;;;;;;4931611;29;20020;-83
2023/12/07 09:10:11;;;;;;;7.50;4.13;;;;;;;;;;4931614;29;20055;-83
2023/12/07 09:12:36;;;;;;;10.90;5.03;;;;;;;;;;4915662;29;20279;-83
2023/12/07 09:15:03;;;;;;;8.30;5.03;;;;;;;;;;4931559;29;20526;-83
2023/12/07 09:17:28;;;;;;;8.10;4.53;;;;;;;;;;4916978;29;20035;-83
2023/12/07 09:19:53;;;;;;;13.03;4.83;;;;;;;;;;4916873;29;20024;-83
2023/12/07 09:22:19;;;;;;;10.00;5.20;;;;;;;;;;4931439;28;20338;-83
2023/12/07 09:24:46;;;;;;;13.85;5.90;;;;;;;;;;4934749;29;20020;-83
2023/12/07 09:27:11;;;;;;;11.50;5.88;;;;;;;;;;4935215;29;20052;-83
2023/12/07 09:29:37;;;;;;;11.73;5.25;;;;;;;;;;4935306;29;20024;-83
2023/12/07 09:32:02;;;;;;;11.05;6.28;;;;;;;;;;4920674;29;20072;-83
2023/12/07 09:34:27;;;;;;;8.88;5.38;;;;;;;;;;4920626;29;20186;-83
2023/12/07 09:37:05;;;;;;;11.40;5.00;;;;;;;;;;4920547;29;20044;-83
2023/12/07 09:39:30;;;;;;;19.15;6.78;;;;;;;;;;4935118;29;20076;-83
2023/12/07 09:41:55;;;;;;;10.53;5.53;;;;;;;;;;4920438;29;20020;-83
2023/12/07 09:44:21;;;;;;;9.50;5.10;;;;;;;;;;4920424;29;20251;-83
2023/12/07 09:46:46;;;;;;;11.10;6.03;;;;;;;;;;4935037;29;20028;-83
2023/12/07 09:49:11;;;;;;;12.10;6.57;;;;;;;;;;4934965;29;20035;-82
2023/12/07 09:51:37;;;;;;;16.93;7.07;;;;;;;;;;4934925;29;20270;-83
2023/12/07 09:54:02;;;;;;;10.48;5.80;;;;;;;;;;4920138;29;20293;-83
2023/12/07 09:56:28;;;;;;;16.90;6.65;;;;;;;;;;4934855;29;20016;-83
2023/12/07 09:58:53;;;;;;;10.23;5.10;;;;;;;;;;4934779;29;20504;-83
2023/12/07 10:01:18;;;;;;;13.10;5.82;;;;;;;;;;4934726;29;20258;-83
2023/12/07 10:03:46;;;;;;;10.57;5.80;;;;;;;;;;4934703;29;20096;-83
2023/12/07 10:06:12;;;;;;;11.82;6.18;;;;;;;;;;4920109;29;20253;-83
2023/12/07 10:08:37;;;;;;;12.38;6.10;;;;;;;;;;4920111;29;20099;-83
2023/12/07 10:11:06;;;;;;;10.60;5.72;;;;;;;;;;4934514;29;20051;-83
2023/12/07 10:13:32;;;;;;;9.88;5.47;;;;;;;;;;4918629;29;20032;-83
2023/12/07 10:16:11;;;;;;;9.35;5.50;;;;;;;;;;4919950;29;20464;-83
2023/12/07 10:18:36;;;;;;;8.32;5.38;;;;;;;;;;4919906;29;20024;-83
2023/12/07 10:21:02;;;;;;;15.02;6.25;;;;;;;;;;4934450;29;20032;-83
2023/12/07 10:23:28;;;;;;;11.20;5.47;;;;;;;;;;4934333;29;20079;-83
2023/12/07 10:25:53;;;;;;;11.40;5.68;;;;;;;;;;4934351;29;20422;-83
2023/12/07 10:28:19;;;;;;;8.57;5.40;;;;;;;;;;4919630;29;20067;-83
2023/12/07 10:30:45;;;;;;;12.07;6.20;;;;;;;;;;4934307;29;20032;-83
2023/12/07 10:33:10;;;;;;;9.98;5.78;;;;;;;;;;4919524;29;20048;-83
2023/12/07 10:35:39;;;;;;;10.07;5.82;;;;;;;;;;4933757;29;20495;-83
2023/12/07 10:38:04;;;;;;;9.98;5.25;;;;;;;;;;4918333;29;20024;-83
2023/12/07 10:40:30;;;;;;;13.82;6.72;;;;;;;;;;4919523;29;20079;-83
2023/12/07 10:42:56;;;;;;;12.52;5.97;;;;;;;;;;4919446;29;20035;-83
2023/12/07 10:45:24;;;;;;;10.13;5.65;;;;;;;;;;4918143;29;20028;-83
2023/12/07 10:47:51;;;;;;;9.07;5.05;;;;;;;;;;4918113;29;20024;-83
2023/12/07 10:50:19;;;;;;;12.13;6.15;;;;;;;;;;4933996;29;20020;-83
2023/12/07 10:52:48;;;;;;;9.70;5.78;;;;;;;;;;4919212;29;20027;-83
2023/12/07 10:55:16;;;;;;;9.70;5.82;;;;;;;;;;4917986;29;20024;-83
2023/12/07 10:57:42;;;;;;;11.32;6.28;;;;;;;;;;4917952;29;20480;-83
2023/12/07 11:00:08;;;;;;;11.20;5.60;;;;;;;;;;4933747;29;20031;-83
2023/12/07 11:02:34;;;;;;;10.18;5.65;;;;;;;;;;4917910;29;20532;-83
2023/12/07 11:04:59;;;;;;;12.30;5.95;;;;;;;;;;4933645;29;20024;-82
2023/12/07 11:07:27;;;;;;;12.52;6.15;;;;;;;;;;4919041;29;20122;-83
2023/12/07 11:09:56;;;;;;;9.57;5.63;;;;;;;;;;4917830;29;20056;-83
2023/12/07 11:12:47;;;;;;;17.85;8.38;;;;;;;;;;4918914;29;20024;-83
2023/12/07 11:15:13;;;;;;;10.75;5.93;;;;;;;;;;4914237;29;20048;-83
2023/12/07 11:17:49;;;;;;;12.68;5.47;;;;;;;;;;4933454;29;20066;-82
2023/12/07 11:20:38;;;;;;;8.68;5.30;;;;;;;;;;4933379;29;20020;-83
2023/12/07 11:23:04;;;;;;;10.80;6.05;;;;;;;;;;4909723;29;20071;-83
2023/12/07 11:25:29;;;;;;;8.68;5.60;;;;;;;;;;4918699;29;20052;-83
2023/12/07 11:28:01;;;;;;;7.68;4.75;;;;;;;;;;4918508;29;20048;-83
2023/12/07 11:30:27;;;;;;;12.38;5.20;;;;;;;;;;4917351;29;20119;-83
2023/12/07 11:32:52;;;;;;;9.68;5.78;;;;;;;;;;4933039;29;20103;-83
2023/12/07 11:35:17;;;;;;;10.73;5.53;;;;;;;;;;4933168;29;20533;-83
2023/12/07 11:38:12;;;;;;;11.60;6.03;;;;;;;;;;4933170;29;20811;-83
2023/12/07 11:40:41;;;;;;;10.80;5.70;;;;;;;;;;4905018;29;20255;-83
2023/12/07 11:43:07;;;;;;;10.13;5.32;;;;;;;;;;4917195;29;20401;-83
2023/12/07 11:45:38;;;;;;;7.40;4.85;;;;;;;;;;4916472;29;20024;-83
2023/12/07 11:48:07;;;;;;;7.17;4.73;;;;;;;;;;4918227;29;20385;-83
2023/12/07 11:50:32;;;;;;;9.70;5.00;;;;;;;;;;4918268;29;20436;-83
2023/12/07 11:52:59;;;;;;;13.23;4.63;;;;;;;;;;4932738;29;20055;-83
2023/12/07 11:55:24;;;;;;;8.88;4.05;;;;;;;;;;4916923;29;20250;-83
2023/12/07 11:57:49;;;;;;;7.03;4.30;;;;;;;;;;4932704;29;20043;-83
2023/12/07 12:00:15;;;;;;;11.15;4.60;;;;;;;;;;4918058;29;20024;-83
2023/12/07 12:02:40;;;;;;;11.60;4.80;;;;;;;;;;4918009;29;20051;-83
2023/12/07 12:05:06;;;;;;;8.63;5.13;;;;;;;;;;4917992;29;20024;-83
2023/12/07 12:07:31;;;;;;;6.68;3.88;;;;;;;;;;4932561;29;20265;-82
2023/12/07 12:09:56;;;;;;;7.77;4.33;;;;;;;;;;4917912;29;20024;-83
2023/12/07 12:12:21;;;;;;;7.17;3.67;;;;;;;;;;4917766;29;20263;-83
2023/12/07 12:14:46;;;;;;;8.00;4.57;;;;;;;;;;4932405;29;20306;-83
2023/12/07 12:17:14;;;;;;;8.07;4.57;;;;;;;;;;4917747;29;20262;-83
2023/12/07 12:19:40;;;;;;;8.85;4.88;;;;;;;;;;4917775;29;20031;-83
2023/12/07 12:22:06;;;;;;;7.33;4.23;;;;;;;;;;4932196;29;20020;-83
2023/12/07 12:24:31;;;;;;;7.53;4.50;;;;;;;;;;4932218;29;20270;-83
2023/12/07 12:26:57;;;;;;;10.18;5.13;;;;;;;;;;4916209;29;20476;-83
2023/12/07 12:29:22;;;;;;;8.65;4.60;;;;;;;;;;4932185;29;20024;-83
2023/12/07 12:31:48;;;;;;;11.20;5.40;;;;;;;;;;4917620;29;20055;-83
2023/12/07 12:34:13;;;;;;;8.73;4.05;;;;;;;;;;4931962;29;20024;-83
2023/12/07 12:36:38;;;;;;;8.52;3.63;;;;;;;;;;4932017;29;20212;-83
2023/12/07 12:39:08;;;;;;;5.38;3.15;;;;;;;;;;4932045;29;20025;-83
2023/12/07 12:41:33;;;;;;;5.65;3.65;;;;;;;;;;4932036;29;20016;-83
2023/12/07 12:43:59;;;;;;;6.53;3.55;;;;;;;;;;4931973;29;20377;-83
2023/12/07 12:46:24;;;;;;;7.95;3.78;;;;;;;;;;4917389;29;20381;-83
2023/12/07 12:48:57;;;;;;;7.60;3.30;;;;;;;;;;4917221;29;20039;-83
2023/12/07 12:51:22;;;;;;;;;;;;;;;;;;4916432;29;20265;-83
2023/12/07 12:53:47;;;;;;;9.50;3.25;;;;;;;;;;4917189;29;19911;-83
2023/12/07 12:56:14;;;;;;;4.93;3.20;;;;;;;;;;4917251;29;20481;-83
2023/12/07 12:58:39;;;;;;;4.85;2.78;;;;;;;;;;4917313;29;20088;-83
2023/12/07 13:01:04;;;;;;;4.13;2.73;;;;;;;;;;4917154;29;20030;-83
2023/12/07 13:03:29;;;;;;;5.70;2.70;;;;;;;;;;4931701;29;20257;-83
2023/12/07 13:05:54;;;;;;;4.43;2.73;;;;;;;;;;4931797;29;20048;-83
2023/12/07 13:08:21;;;;;;;5.60;2.57;;;;;;;;;;4917093;29;20258;-83
2023/12/07 13:10:46;;;;;;;4.35;2.30;;;;;;;;;;4917110;29;20247;-83
2023/12/07 13:13:11;;;;;;;5.37;2.73;;;;;;;;;;4931579;29;20496;-83
2023/12/07 13:15:37;;;;;;;4.43;2.47;;;;;;;;;;4917041;29;20251;-83
2023/12/07 13:18:02;;;;;;;5.78;2.90;;;;;;;;;;4931588;29;20259;-83
2023/12/07 13:20:27;;;;;;;4.75;2.63;;;;;;;;;;4917007;29;20071;-83
2023/12/07 13:22:53;;;;;;;4.97;2.20;;;;;;;;;;4916939;29;20024;-83
2023/12/07 13:25:18;;;;;;;3.30;2.13;;;;;;;;;;4931523;29;20318;-83
2023/12/07 13:27:43;;;;;;;5.27;2.10;;;;;;;;;;4931364;29;20059;-83
2023/12/07 13:30:09;;;;;;;4.93;2.50;;;;;;;;;;4916900;29;20262;-83
2023/12/07 13:32:36;;;;;;;9.52;2.88;;;;;;;;;;4916836;29;20262;-83
2023/12/07 13:35:02;;;;;;;7.13;3.00;;;;;;;;;;4916879;29;20020;-83
2023/12/07 13:37:27;;;;;;;7.10;2.92;;;;;;;;;;4931428;29;20374;-83
2023/12/07 13:39:57;;;;;;;4.43;2.57;;;;;;;;;;4931369;29;20024;-83
2023/12/07 13:42:26;;;;;;;5.07;2.80;;;;;;;;;;4931407;29;20254;-83
2023/12/07 13:44:51;;;;;;;6.00;2.80;;;;;;;;;;4914591;29;20024;-83
2023/12/07 13:47:17;;;;;;;7.43;2.78;;;;;;;;;;4931390;29;20017;-83
2023/12/07 13:49:42;;;;;;;5.53;2.80;;;;;;;;;;4915518;29;20167;-83
2023/12/07 13:52:07;;;;;;;8.90;3.30;;;;;;;;;;4916767;29;20031;-83
2023/12/07 13:54:33;;;;;;;4.50;2.63;;;;;;;;;;4931252;29;20032;-82
2023/12/07 13:56:58;;;;;;;10.83;4.70;;;;;;;;;;4916725;29;20628;-83
2023/12/07 13:59:23;;;;;;;4.32;2.67;;;;;;;;;;4916641;29;20585;-83
2023/12/07 14:01:49;;;;;;;6.70;2.58;;;;;;;;;;4931253;29;20047;-83
2023/12/07 14:04:14;;;;;;;3.85;2.35;;;;;;;;;;4916661;29;20031;-83
2023/12/07 14:06:39;;;;;;;5.15;2.90;;;;;;;;;;4916635;29;20028;-83
2023/12/07 14:09:04;;;;;;;4.77;2.93;;;;;;;;;;4917135;29;20024;-83
2023/12/07 14:11:30;;;;;;;4.63;2.63;;;;;;;;;;4934661;29;20266;-83
2023/12/07 14:13:55;;;;;;;4.50;2.40;;;;;;;;;;4934555;29;20032;-83
2023/12/07 14:16:20;;;;;;;3.83;2.47;;;;;;;;;;4919915;29;20397;-83
2023/12/07 14:18:46;;;;;;;4.80;2.80;;;;;;;;;;4919997;29;20036;-83
2023/12/07 14:21:11;;;;;;;3.63;2.40;;;;;;;;;;4934484;29;20155;-83